sensor_id;sensor_type;location;lat;lon;timestamp;temperature;humidity
70368;DHT22;57789;53.868;10.728;2023-05-29T00:01:57;12.30;99.90
70368;DHT22;57789;53.868;10.728;2023-05-29T00:04:23;12.30;99.90
70368;DHT22;57789;53.868;10.728;2023-05-29T00:06:49;12.30;99.90
70368;DHT22;57789;53.868;10.728;2023-05-29T00:09:16;12.30;99.90
70368;DHT22;57789;53.868;10.728;2023-05-29T00:11:42;12.20;99.90
70368;DHT22;57789;53.868;10.728;2023-05-29T00:14:08;12.00;99.90
70368;DHT22;57789;53.868;10.728;2023-05-29T00:16:38;12.10;99.90
70368;DHT22;57789;53.868;10.728;2023-05-29T00:19:04;12.00;99.90
70368;DHT22;57789;53.868;10.728;2023-05-29T00:21:31;12.00;99.90
70368;DHT22;57789;53.868;10.728;2023-05-29T00:23:57;11.90;99.90
70368;DHT22;57789;53.868;10.728;2023-05-29T00:26:23;11.80;99.90
70368;DHT22;57789;53.868;10.728;2023-05-29T00:28:49;11.80;99.90
70368;DHT22;57789;53.868;10.728;2023-05-29T00:31:15;11.70;99.90
70368;DHT22;57789;53.868;10.728;2023-05-29T00:33:41;11.70;99.90
70368;DHT22;57789;53.868;10.728;2023-05-29T00:36:07;11.60;99.90
70368;DHT22;57789;53.868;10.728;2023-05-29T00:38:33;11.60;99.90
70368;DHT22;57789;53.868;10.728;2023-05-29T00:40:59;11.60;99.90
70368;DHT22;57789;53.868;10.728;2023-05-29T00:43:25;11.40;99.90
70368;DHT22;57789;53.868;10.728;2023-05-29T00:45:53;11.40;99.90
70368;DHT22;57789;53.868;10.728;2023-05-29T00:48:19;11.30;99.90
70368;DHT22;57789;53.868;10.728;2023-05-29T00:50:47;11.30;99.90
70368;DHT22;57789;53.868;10.728;2023-05-29T00:53:14;11.20;99.90
70368;DHT22;57789;53.868;10.728;2023-05-29T00:55:41;11.20;99.90
70368;DHT22;57789;53.868;10.728;2023-05-29T00:58:07;11.10;99.90
70368;DHT22;57789;53.868;10.728;2023-05-29T01:00:33;11.10;99.90
70368;DHT22;57789;53.868;10.728;2023-05-29T01:03:03;11.00;99.90
70368;DHT22;57789;53.868;10.728;2023-05-29T01:05:33;11.00;99.90
70368;DHT22;57789;53.868;10.728;2023-05-29T01:07:59;11.00;99.90
70368;DHT22;57789;53.868;10.728;2023-05-29T01:10:26;10.90;99.90
70368;DHT22;57789;53.868;10.728;2023-05-29T01:13:03;10.80;99.90
70368;DHT22;57789;53.868;10.728;2023-05-29T01:15:52;10.80;99.90
70368;DHT22;57789;53.868;10.728;2023-05-29T01:29:15;10.60;99.90
70368;DHT22;57789;53.868;10.728;2023-05-29T01:31:44;10.50;99.90
70368;DHT22;57789;53.868;10.728;2023-05-29T01:34:11;10.50;99.90
70368;DHT22;57789;53.868;10.728;2023-05-29T01:36:37;10.60;99.90
70368;DHT22;57789;53.868;10.728;2023-05-29T01:39:04;10.50;99.90
70368;DHT22;57789;53.868;10.728;2023-05-29T01:41:31;10.50;99.90
70368;DHT22;57789;53.868;10.728;2023-05-29T01:43:58;10.50;99.90
70368;DHT22;57789;53.868;10.728;2023-05-29T01:46:25;10.40;99.90
70368;DHT22;57789;53.868;10.728;2023-05-29T01:48:53;10.30;99.90
70368;DHT22;57789;53.868;10.728;2023-05-29T01:51:19;10.30;99.90
70368;DHT22;57789;53.868;10.728;2023-05-29T01:53:45;10.30;99.90
70368;DHT22;57789;53.868;10.728;2023-05-29T01:56:11;10.30;99.90
70368;DHT22;57789;53.868;10.728;2023-05-29T01:58:38;10.30;99.90
70368;DHT22;57789;53.868;10.728;2023-05-29T02:01:07;10.20;99.90
70368;DHT22;57789;53.868;10.728;2023-05-29T02:03:34;10.20;99.90
70368;DHT22;57789;53.868;10.728;2023-05-29T02:06:00;10.20;99.90
70368;DHT22;57789;53.868;10.728;2023-05-29T02:08:27;10.20;99.90
70368;DHT22;57789;53.868;10.728;2023-05-29T02:10:53;10.20;99.90
70368;DHT22;57789;53.868;10.728;2023-05-29T02:13:19;10.20;99.90
70368;DHT22;57789;53.868;10.728;2023-05-29T02:15:45;10.20;99.90
70368;DHT22;57789;53.868;10.728;2023-05-29T02:18:12;10.20;99.90
70368;DHT22;57789;53.868;10.728;2023-05-29T02:20:38;10.10;99.90
70368;DHT22;57789;53.868;10.728;2023-05-29T02:23:05;10.00;99.90
70368;DHT22;57789;53.868;10.728;2023-05-29T02:25:31;10.00;99.90
70368;DHT22;57789;53.868;10.728;2023-05-29T02:27:57;9.90;99.90
70368;DHT22;57789;53.868;10.728;2023-05-29T02:30:23;9.90;99.90
70368;DHT22;57789;53.868;10.728;2023-05-29T02:32:48;9.90;99.90
70368;DHT22;57789;53.868;10.728;2023-05-29T02:35:14;9.80;99.90
70368;DHT22;57789;53.868;10.728;2023-05-29T02:37:42;9.80;99.90
70368;DHT22;57789;53.868;10.728;2023-05-29T02:40:09;9.80;99.90
70368;DHT22;57789;53.868;10.728;2023-05-29T02:42:35;9.90;99.90
70368;DHT22;57789;53.868;10.728;2023-05-29T02:45:01;9.80;99.90
70368;DHT22;57789;53.868;10.728;2023-05-29T02:47:27;9.80;99.90
70368;DHT22;57789;53.868;10.728;2023-05-29T02:49:53;9.70;99.90
70368;DHT22;57789;53.868;10.728;2023-05-29T02:52:19;9.70;99.90
70368;DHT22;57789;53.868;10.728;2023-05-29T02:54:45;9.60;99.90
70368;DHT22;57789;53.868;10.728;2023-05-29T02:57:10;9.60;99.90
70368;DHT22;57789;53.868;10.728;2023-05-29T02:59:37;9.50;99.90
70368;DHT22;57789;53.868;10.728;2023-05-29T03:02:03;9.50;99.90
70368;DHT22;57789;53.868;10.728;2023-05-29T03:04:29;9.40;99.90
70368;DHT22;57789;53.868;10.728;2023-05-29T03:06:55;9.50;99.90
70368;DHT22;57789;53.868;10.728;2023-05-29T03:09:21;9.40;99.90
70368;DHT22;57789;53.868;10.728;2023-05-29T03:11:47;9.40;99.90
70368;DHT22;57789;53.868;10.728;2023-05-29T03:14:15;9.40;99.90
70368;DHT22;57789;53.868;10.728;2023-05-29T03:16:41;9.40;99.90
70368;DHT22;57789;53.868;10.728;2023-05-29T03:19:07;9.30;99.90
70368;DHT22;57789;53.868;10.728;2023-05-29T03:21:33;9.30;99.90
70368;DHT22;57789;53.868;10.728;2023-05-29T03:23:59;9.30;99.90
70368;DHT22;57789;53.868;10.728;2023-05-29T03:26:29;9.30;99.90
70368;DHT22;57789;53.868;10.728;2023-05-29T03:28:56;9.30;99.90
70368;DHT22;57789;53.868;10.728;2023-05-29T03:31:22;9.30;99.90
70368;DHT22;57789;53.868;10.728;2023-05-29T03:33:49;9.40;99.90
70368;DHT22;57789;53.868;10.728;2023-05-29T03:36:16;9.40;99.90
70368;DHT22;57789;53.868;10.728;2023-05-29T03:38:45;9.30;99.90
70368;DHT22;57789;53.868;10.728;2023-05-29T03:41:12;9.20;99.90
70368;DHT22;57789;53.868;10.728;2023-05-29T03:43:38;9.20;99.90
70368;DHT22;57789;53.868;10.728;2023-05-29T03:46:05;9.10;99.90
70368;DHT22;57789;53.868;10.728;2023-05-29T03:48:31;9.10;99.90
70368;DHT22;57789;53.868;10.728;2023-05-29T03:50:58;9.20;99.90
70368;DHT22;57789;53.868;10.728;2023-05-29T03:53:23;9.20;99.90
70368;DHT22;57789;53.868;10.728;2023-05-29T03:55:49;9.20;99.90
70368;DHT22;57789;53.868;10.728;2023-05-29T03:58:15;9.10;99.90
70368;DHT22;57789;53.868;10.728;2023-05-29T04:00:41;9.00;99.90
70368;DHT22;57789;53.868;10.728;2023-05-29T04:03:08;8.80;99.90
70368;DHT22;57789;53.868;10.728;2023-05-29T04:05:34;8.80;99.90
70368;DHT22;57789;53.868;10.728;2023-05-29T04:08:00;8.80;99.90
70368;DHT22;57789;53.868;10.728;2023-05-29T04:10:26;8.70;99.90
70368;DHT22;57789;53.868;10.728;2023-05-29T04:12:53;8.80;99.90
70368;DHT22;57789;53.868;10.728;2023-05-29T04:15:20;8.80;99.90
70368;DHT22;57789;53.868;10.728;2023-05-29T04:17:47;8.90;99.90
70368;DHT22;57789;53.868;10.728;2023-05-29T04:20:13;8.90;99.90
70368;DHT22;57789;53.868;10.728;2023-05-29T04:22:39;8.90;99.90
70368;DHT22;57789;53.868;10.728;2023-05-29T04:25:05;8.90;99.90
70368;DHT22;57789;53.868;10.728;2023-05-29T04:27:31;9.00;99.90
70368;DHT22;57789;53.868;10.728;2023-05-29T04:29:58;9.10;99.90
70368;DHT22;57789;53.868;10.728;2023-05-29T04:32:24;9.10;99.90
70368;DHT22;57789;53.868;10.728;2023-05-29T04:34:50;9.10;99.90
70368;DHT22;57789;53.868;10.728;2023-05-29T04:37:17;9.10;99.90
70368;DHT22;57789;53.868;10.728;2023-05-29T04:39:43;9.10;99.90
70368;DHT22;57789;53.868;10.728;2023-05-29T04:42:09;9.00;99.90
70368;DHT22;57789;53.868;10.728;2023-05-29T04:44:35;9.00;99.90
70368;DHT22;57789;53.868;10.728;2023-05-29T04:47:01;9.00;99.90
70368;DHT22;57789;53.868;10.728;2023-05-29T04:49:30;9.00;99.90
70368;DHT22;57789;53.868;10.728;2023-05-29T04:51:56;9.10;99.90
70368;DHT22;57789;53.868;10.728;2023-05-29T04:54:25;9.20;99.90
70368;DHT22;57789;53.868;10.728;2023-05-29T04:56:51;9.10;99.90
70368;DHT22;57789;53.868;10.728;2023-05-29T04:59:18;9.10;99.90
70368;DHT22;57789;53.868;10.728;2023-05-29T05:01:44;9.10;99.90
70368;DHT22;57789;53.868;10.728;2023-05-29T05:04:10;9.10;99.90
70368;DHT22;57789;53.868;10.728;2023-05-29T05:06:36;9.20;99.90
70368;DHT22;57789;53.868;10.728;2023-05-29T05:09:03;9.20;99.90
70368;DHT22;57789;53.868;10.728;2023-05-29T05:11:29;9.20;99.90
70368;DHT22;57789;53.868;10.728;2023-05-29T05:13:55;9.10;99.90
70368;DHT22;57789;53.868;10.728;2023-05-29T05:16:20;9.20;99.90
70368;DHT22;57789;53.868;10.728;2023-05-29T05:18:46;9.30;99.90
70368;DHT22;57789;53.868;10.728;2023-05-29T05:21:12;9.20;99.90
70368;DHT22;57789;53.868;10.728;2023-05-29T05:23:38;9.30;99.90
70368;DHT22;57789;53.868;10.728;2023-05-29T05:26:05;9.40;99.90
70368;DHT22;57789;53.868;10.728;2023-05-29T05:28:31;9.40;99.90
70368;DHT22;57789;53.868;10.728;2023-05-29T05:30:56;9.40;99.90
70368;DHT22;57789;53.868;10.728;2023-05-29T05:33:24;9.50;99.90
70368;DHT22;57789;53.868;10.728;2023-05-29T05:35:50;9.50;99.90
70368;DHT22;57789;53.868;10.728;2023-05-29T05:38:16;9.50;99.90
70368;DHT22;57789;53.868;10.728;2023-05-29T05:40:42;9.50;99.90
70368;DHT22;57789;53.868;10.728;2023-05-29T05:43:10;9.50;99.90
70368;DHT22;57789;53.868;10.728;2023-05-29T05:45:36;9.50;99.90
70368;DHT22;57789;53.868;10.728;2023-05-29T05:48:08;9.60;99.90
70368;DHT22;57789;53.868;10.728;2023-05-29T05:50:37;9.70;99.90
70368;DHT22;57789;53.868;10.728;2023-05-29T05:53:03;9.70;99.90
70368;DHT22;57789;53.868;10.728;2023-05-29T05:55:28;9.80;99.90
70368;DHT22;57789;53.868;10.728;2023-05-29T05:57:55;9.90;99.90
70368;DHT22;57789;53.868;10.728;2023-05-29T06:00:23;10.00;99.90
70368;DHT22;57789;53.868;10.728;2023-05-29T06:02:50;10.00;99.90
70368;DHT22;57789;53.868;10.728;2023-05-29T06:05:17;10.10;99.90
70368;DHT22;57789;53.868;10.728;2023-05-29T06:07:42;10.20;99.90
70368;DHT22;57789;53.868;10.728;2023-05-29T06:10:08;10.30;99.90
70368;DHT22;57789;53.868;10.728;2023-05-29T06:12:36;10.30;99.90
70368;DHT22;57789;53.868;10.728;2023-05-29T06:15:03;10.30;99.90
70368;DHT22;57789;53.868;10.728;2023-05-29T06:17:30;10.30;99.90
70368;DHT22;57789;53.868;10.728;2023-05-29T06:19:55;10.30;99.90
70368;DHT22;57789;53.868;10.728;2023-05-29T06:22:21;10.30;99.90
70368;DHT22;57789;53.868;10.728;2023-05-29T06:24:49;10.30;99.90
70368;DHT22;57789;53.868;10.728;2023-05-29T06:27:15;10.40;99.90
70368;DHT22;57789;53.868;10.728;2023-05-29T06:29:41;10.50;99.90
70368;DHT22;57789;53.868;10.728;2023-05-29T06:32:07;10.70;99.90
70368;DHT22;57789;53.868;10.728;2023-05-29T06:34:33;10.80;99.90
70368;DHT22;57789;53.868;10.728;2023-05-29T06:36:58;10.90;99.90
70368;DHT22;57789;53.868;10.728;2023-05-29T06:39:24;11.10;99.90
70368;DHT22;57789;53.868;10.728;2023-05-29T06:41:50;11.30;99.90
70368;DHT22;57789;53.868;10.728;2023-05-29T06:44:16;11.20;99.90
70368;DHT22;57789;53.868;10.728;2023-05-29T06:46:42;11.20;99.90
70368;DHT22;57789;53.868;10.728;2023-05-29T06:49:08;11.30;99.90
70368;DHT22;57789;53.868;10.728;2023-05-29T06:51:34;11.20;99.90
70368;DHT22;57789;53.868;10.728;2023-05-29T06:54:00;11.20;99.90
70368;DHT22;57789;53.868;10.728;2023-05-29T06:56:26;11.30;99.90
70368;DHT22;57789;53.868;10.728;2023-05-29T06:58:53;11.30;99.90
70368;DHT22;57789;53.868;10.728;2023-05-29T07:01:19;11.30;99.90
70368;DHT22;57789;53.868;10.728;2023-05-29T07:03:47;11.40;99.90
70368;DHT22;57789;53.868;10.728;2023-05-29T07:06:17;11.50;99.90
70368;DHT22;57789;53.868;10.728;2023-05-29T07:08:42;11.70;99.90
70368;DHT22;57789;53.868;10.728;2023-05-29T07:11:10;11.60;99.90
70368;DHT22;57789;53.868;10.728;2023-05-29T07:13:35;11.80;99.90
70368;DHT22;57789;53.868;10.728;2023-05-29T07:16:01;11.80;99.90
70368;DHT22;57789;53.868;10.728;2023-05-29T07:18:27;11.80;99.90
70368;DHT22;57789;53.868;10.728;2023-05-29T07:20:56;11.80;99.90
70368;DHT22;57789;53.868;10.728;2023-05-29T07:23:23;11.80;99.90
70368;DHT22;57789;53.868;10.728;2023-05-29T07:25:49;11.90;99.90
70368;DHT22;57789;53.868;10.728;2023-05-29T07:28:15;11.90;99.90
70368;DHT22;57789;53.868;10.728;2023-05-29T07:30:41;11.90;99.90
70368;DHT22;57789;53.868;10.728;2023-05-29T07:33:07;12.00;99.90
70368;DHT22;57789;53.868;10.728;2023-05-29T07:35:33;12.20;99.90
70368;DHT22;57789;53.868;10.728;2023-05-29T07:37:59;12.10;99.90
70368;DHT22;57789;53.868;10.728;2023-05-29T07:40:26;12.20;99.90
70368;DHT22;57789;53.868;10.728;2023-05-29T07:42:52;12.40;99.90
70368;DHT22;57789;53.868;10.728;2023-05-29T07:45:18;12.30;99.90
70368;DHT22;57789;53.868;10.728;2023-05-29T07:47:44;12.50;99.90
70368;DHT22;57789;53.868;10.728;2023-05-29T07:50:10;12.40;99.90
70368;DHT22;57789;53.868;10.728;2023-05-29T07:52:36;12.30;99.90
70368;DHT22;57789;53.868;10.728;2023-05-29T07:55:03;12.40;99.90
70368;DHT22;57789;53.868;10.728;2023-05-29T07:57:29;12.40;99.90
70368;DHT22;57789;53.868;10.728;2023-05-29T07:59:55;12.60;99.90
70368;DHT22;57789;53.868;10.728;2023-05-29T08:02:21;12.60;99.90
70368;DHT22;57789;53.868;10.728;2023-05-29T08:04:47;12.80;99.90
70368;DHT22;57789;53.868;10.728;2023-05-29T08:07:13;12.70;99.90
70368;DHT22;57789;53.868;10.728;2023-05-29T08:09:39;12.90;99.90
70368;DHT22;57789;53.868;10.728;2023-05-29T08:12:05;12.90;99.90
70368;DHT22;57789;53.868;10.728;2023-05-29T08:14:32;13.00;99.90
70368;DHT22;57789;53.868;10.728;2023-05-29T08:16:58;13.20;99.90
70368;DHT22;57789;53.868;10.728;2023-05-29T08:19:24;13.40;99.90
70368;DHT22;57789;53.868;10.728;2023-05-29T08:21:50;13.50;99.90
70368;DHT22;57789;53.868;10.728;2023-05-29T08:24:16;13.40;99.90
70368;DHT22;57789;53.868;10.728;2023-05-29T08:26:42;13.20;99.90
70368;DHT22;57789;53.868;10.728;2023-05-29T08:29:09;13.10;99.90
70368;DHT22;57789;53.868;10.728;2023-05-29T08:31:35;13.10;99.90
70368;DHT22;57789;53.868;10.728;2023-05-29T08:34:01;13.20;99.90
70368;DHT22;57789;53.868;10.728;2023-05-29T08:36:27;13.30;99.90
70368;DHT22;57789;53.868;10.728;2023-05-29T08:38:53;13.40;99.90
70368;DHT22;57789;53.868;10.728;2023-05-29T08:41:34;13.40;99.90
70368;DHT22;57789;53.868;10.728;2023-05-29T08:44:03;13.40;99.90
70368;DHT22;57789;53.868;10.728;2023-05-29T08:46:32;13.50;99.90
70368;DHT22;57789;53.868;10.728;2023-05-29T08:48:59;13.60;99.90
70368;DHT22;57789;53.868;10.728;2023-05-29T08:51:31;13.70;99.90
70368;DHT22;57789;53.868;10.728;2023-05-29T08:53:58;13.60;99.90
70368;DHT22;57789;53.868;10.728;2023-05-29T08:56:24;13.60;99.90
70368;DHT22;57789;53.868;10.728;2023-05-29T08:58:50;13.80;99.90
70368;DHT22;57789;53.868;10.728;2023-05-29T09:01:18;14.00;99.90
70368;DHT22;57789;53.868;10.728;2023-05-29T09:03:47;14.20;99.90
70368;DHT22;57789;53.868;10.728;2023-05-29T09:06:13;14.40;99.90
70368;DHT22;57789;53.868;10.728;2023-05-29T09:08:39;14.40;99.90
70368;DHT22;57789;53.868;10.728;2023-05-29T09:11:04;14.50;99.90
70368;DHT22;57789;53.868;10.728;2023-05-29T09:13:31;14.70;99.90
70368;DHT22;57789;53.868;10.728;2023-05-29T09:16:00;14.70;99.90
70368;DHT22;57789;53.868;10.728;2023-05-29T09:18:31;14.80;99.90
70368;DHT22;57789;53.868;10.728;2023-05-29T09:20:57;15.10;99.90
70368;DHT22;57789;53.868;10.728;2023-05-29T09:23:25;15.30;99.90
70368;DHT22;57789;53.868;10.728;2023-05-29T09:25:53;15.80;99.90
70368;DHT22;57789;53.868;10.728;2023-05-29T09:28:21;16.10;99.90
70368;DHT22;57789;53.868;10.728;2023-05-29T09:30:49;16.40;99.90
70368;DHT22;57789;53.868;10.728;2023-05-29T09:33:17;16.80;99.90
70368;DHT22;57789;53.868;10.728;2023-05-29T09:35:48;17.20;99.90
70368;DHT22;57789;53.868;10.728;2023-05-29T09:38:16;17.40;99.90
70368;DHT22;57789;53.868;10.728;2023-05-29T09:40:42;17.40;99.90
70368;DHT22;57789;53.868;10.728;2023-05-29T09:43:13;17.00;99.90
70368;DHT22;57789;53.868;10.728;2023-05-29T09:45:44;16.70;99.90
70368;DHT22;57789;53.868;10.728;2023-05-29T09:48:14;16.50;99.90
70368;DHT22;57789;53.868;10.728;2023-05-29T09:50:41;16.50;99.90
70368;DHT22;57789;53.868;10.728;2023-05-29T09:53:24;16.40;99.90
70368;DHT22;57789;53.868;10.728;2023-05-29T09:55:56;16.30;99.90
70368;DHT22;57789;53.868;10.728;2023-05-29T09:58:28;16.30;99.90
70368;DHT22;57789;53.868;10.728;2023-05-29T10:00:56;16.30;99.90
70368;DHT22;57789;53.868;10.728;2023-05-29T10:03:23;16.30;99.90
70368;DHT22;57789;53.868;10.728;2023-05-29T10:05:51;16.50;99.90
70368;DHT22;57789;53.868;10.728;2023-05-29T10:08:19;16.80;99.90
70368;DHT22;57789;53.868;10.728;2023-05-29T10:10:53;16.90;99.90
70368;DHT22;57789;53.868;10.728;2023-05-29T10:13:21;17.00;99.90
70368;DHT22;57789;53.868;10.728;2023-05-29T10:15:50;17.10;99.90
70368;DHT22;57789;53.868;10.728;2023-05-29T10:18:24;17.20;99.90
70368;DHT22;57789;53.868;10.728;2023-05-29T10:20:53;17.20;99.90
70368;DHT22;57789;53.868;10.728;2023-05-29T10:23:25;17.20;99.90
70368;DHT22;57789;53.868;10.728;2023-05-29T10:25:58;17.20;99.90
70368;DHT22;57789;53.868;10.728;2023-05-29T10:28:27;17.30;99.90
70368;DHT22;57789;53.868;10.728;2023-05-29T10:31:09;17.30;99.90
70368;DHT22;57789;53.868;10.728;2023-05-29T10:36:27;17.60;99.90
70368;DHT22;57789;53.868;10.728;2023-05-29T10:38:54;17.50;99.90
70368;DHT22;57789;53.868;10.728;2023-05-29T10:43:54;17.40;99.90
70368;DHT22;57789;53.868;10.728;2023-05-29T10:46:21;17.30;99.90
70368;DHT22;57789;53.868;10.728;2023-05-29T10:48:50;17.40;99.90
70368;DHT22;57789;53.868;10.728;2023-05-29T10:51:27;17.30;99.90
70368;DHT22;57789;53.868;10.728;2023-05-29T10:53:53;17.30;99.90
70368;DHT22;57789;53.868;10.728;2023-05-29T10:56:24;17.40;99.90
70368;DHT22;57789;53.868;10.728;2023-05-29T10:58:55;17.60;99.90
70368;DHT22;57789;53.868;10.728;2023-05-29T11:01:28;17.80;99.90
70368;DHT22;57789;53.868;10.728;2023-05-29T11:06:52;17.10;99.90
70368;DHT22;57789;53.868;10.728;2023-05-29T11:15:01;17.70;99.90
70368;DHT22;57789;53.868;10.728;2023-05-29T11:20:04;17.90;99.90
70368;DHT22;57789;53.868;10.728;2023-05-29T11:25:35;18.00;97.40
70368;DHT22;57789;53.868;10.728;2023-05-29T11:28:02;18.20;99.10
70368;DHT22;57789;53.868;10.728;2023-05-29T11:30:30;18.30;97.10
70368;DHT22;57789;53.868;10.728;2023-05-29T11:33:00;18.50;97.00
70368;DHT22;57789;53.868;10.728;2023-05-29T11:35:30;18.40;96.60
70368;DHT22;57789;53.868;10.728;2023-05-29T11:38:01;18.60;96.80
70368;DHT22;57789;53.868;10.728;2023-05-29T11:40:27;18.60;96.10
70368;DHT22;57789;53.868;10.728;2023-05-29T11:42:53;18.50;95.70
70368;DHT22;57789;53.868;10.728;2023-05-29T11:45:20;18.30;95.70
70368;DHT22;57789;53.868;10.728;2023-05-29T11:50:24;18.70;94.00
70368;DHT22;57789;53.868;10.728;2023-05-29T11:52:51;19.10;90.70
70368;DHT22;57789;53.868;10.728;2023-05-29T11:55:20;19.60;91.90
70368;DHT22;57789;53.868;10.728;2023-05-29T11:57:50;20.10;86.50
70368;DHT22;57789;53.868;10.728;2023-05-29T12:00:18;20.70;82.90
70368;DHT22;57789;53.868;10.728;2023-05-29T12:02:45;20.70;79.60
70368;DHT22;57789;53.868;10.728;2023-05-29T12:05:16;21.40;77.10
70368;DHT22;57789;53.868;10.728;2023-05-29T12:07:52;21.80;72.10
70368;DHT22;57789;53.868;10.728;2023-05-29T12:10:20;22.10;66.10
70368;DHT22;57789;53.868;10.728;2023-05-29T12:15:18;22.20;61.90
70368;DHT22;57789;53.868;10.728;2023-05-29T12:17:45;22.70;58.50
70368;DHT22;57789;53.868;10.728;2023-05-29T12:20:12;23.10;56.50
70368;DHT22;57789;53.868;10.728;2023-05-29T12:22:40;23.40;54.50
70368;DHT22;57789;53.868;10.728;2023-05-29T12:27:33;23.20;52.00
70368;DHT22;57789;53.868;10.728;2023-05-29T12:30:10;22.70;54.40
70368;DHT22;57789;53.868;10.728;2023-05-29T12:32:38;22.70;53.40
70368;DHT22;57789;53.868;10.728;2023-05-29T12:35:14;22.60;54.50
70368;DHT22;57789;53.868;10.728;2023-05-29T12:37:44;23.40;53.50
70368;DHT22;57789;53.868;10.728;2023-05-29T12:40:14;23.50;52.30
70368;DHT22;57789;53.868;10.728;2023-05-29T12:42:43;23.90;51.40
70368;DHT22;57789;53.868;10.728;2023-05-29T12:45:09;24.40;50.90
70368;DHT22;57789;53.868;10.728;2023-05-29T12:47:45;24.80;50.60
70368;DHT22;57789;53.868;10.728;2023-05-29T12:53:07;25.70;49.70
70368;DHT22;57789;53.868;10.728;2023-05-29T12:55:37;26.50;48.40
70368;DHT22;57789;53.868;10.728;2023-05-29T12:58:08;26.40;48.40
70368;DHT22;57789;53.868;10.728;2023-05-29T13:00:36;27.10;47.40
70368;DHT22;57789;53.868;10.728;2023-05-29T13:03:03;27.30;46.20
70368;DHT22;57789;53.868;10.728;2023-05-29T13:05:29;27.40;47.00
70368;DHT22;57789;53.868;10.728;2023-05-29T13:07:57;26.80;48.10
70368;DHT22;57789;53.868;10.728;2023-05-29T13:10:25;26.80;48.20
70368;DHT22;57789;53.868;10.728;2023-05-29T13:12:53;26.60;48.00
70368;DHT22;57789;53.868;10.728;2023-05-29T13:15:21;27.20;47.00
70368;DHT22;57789;53.868;10.728;2023-05-29T13:17:47;27.30;46.10
70368;DHT22;57789;53.868;10.728;2023-05-29T13:20:14;27.50;47.30
70368;DHT22;57789;53.868;10.728;2023-05-29T13:22:43;27.70;46.20
70368;DHT22;57789;53.868;10.728;2023-05-29T13:25:10;27.40;46.50
70368;DHT22;57789;53.868;10.728;2023-05-29T13:27:38;27.20;47.90
70368;DHT22;57789;53.868;10.728;2023-05-29T13:30:08;26.00;48.60
70368;DHT22;57789;53.868;10.728;2023-05-29T13:32:35;26.40;50.30
70368;DHT22;57789;53.868;10.728;2023-05-29T13:35:02;26.10;49.00
70368;DHT22;57789;53.868;10.728;2023-05-29T13:37:29;26.20;48.40
70368;DHT22;57789;53.868;10.728;2023-05-29T13:39:58;26.60;49.30
70368;DHT22;57789;53.868;10.728;2023-05-29T13:42:24;27.40;47.00
70368;DHT22;57789;53.868;10.728;2023-05-29T13:44:50;27.30;47.30
70368;DHT22;57789;53.868;10.728;2023-05-29T13:47:16;28.10;45.90
70368;DHT22;57789;53.868;10.728;2023-05-29T13:49:42;28.20;45.60
70368;DHT22;57789;53.868;10.728;2023-05-29T13:52:08;27.90;45.80
70368;DHT22;57789;53.868;10.728;2023-05-29T13:54:34;27.90;47.30
70368;DHT22;57789;53.868;10.728;2023-05-29T13:57:03;27.80;45.60
70368;DHT22;57789;53.868;10.728;2023-05-29T13:59:33;27.70;46.20
70368;DHT22;57789;53.868;10.728;2023-05-29T14:02:00;27.50;46.70
70368;DHT22;57789;53.868;10.728;2023-05-29T14:04:26;27.50;45.40
70368;DHT22;57789;53.868;10.728;2023-05-29T14:06:52;27.00;45.70
70368;DHT22;57789;53.868;10.728;2023-05-29T14:09:20;26.60;45.80
70368;DHT22;57789;53.868;10.728;2023-05-29T14:11:57;26.30;46.00
70368;DHT22;57789;53.868;10.728;2023-05-29T14:14:23;26.30;47.00
70368;DHT22;57789;53.868;10.728;2023-05-29T14:16:50;26.50;47.60
70368;DHT22;57789;53.868;10.728;2023-05-29T14:19:20;26.60;46.40
70368;DHT22;57789;53.868;10.728;2023-05-29T14:21:47;27.10;46.50
70368;DHT22;57789;53.868;10.728;2023-05-29T14:24:15;26.90;45.40
70368;DHT22;57789;53.868;10.728;2023-05-29T14:26:43;28.00;46.10
70368;DHT22;57789;53.868;10.728;2023-05-29T14:29:11;28.90;45.80
70368;DHT22;57789;53.868;10.728;2023-05-29T14:31:42;28.40;43.60
70368;DHT22;57789;53.868;10.728;2023-05-29T14:34:08;28.30;43.90
70368;DHT22;57789;53.868;10.728;2023-05-29T14:36:37;28.40;44.00
70368;DHT22;57789;53.868;10.728;2023-05-29T14:39:04;28.40;44.30
70368;DHT22;57789;53.868;10.728;2023-05-29T14:41:29;27.70;44.10
70368;DHT22;57789;53.868;10.728;2023-05-29T14:43:58;27.60;45.50
70368;DHT22;57789;53.868;10.728;2023-05-29T14:46:27;27.60;44.80
70368;DHT22;57789;53.868;10.728;2023-05-29T14:48:59;27.80;44.30
70368;DHT22;57789;53.868;10.728;2023-05-29T14:51:25;27.40;44.40
70368;DHT22;57789;53.868;10.728;2023-05-29T14:53:51;28.00;45.70
70368;DHT22;57789;53.868;10.728;2023-05-29T14:56:18;28.50;44.90
70368;DHT22;57789;53.868;10.728;2023-05-29T14:58:45;28.00;43.30
70368;DHT22;57789;53.868;10.728;2023-05-29T15:01:16;28.90;45.60
70368;DHT22;57789;53.868;10.728;2023-05-29T15:03:41;30.30;44.20
70368;DHT22;57789;53.868;10.728;2023-05-29T15:06:10;29.90;42.90
70368;DHT22;57789;53.868;10.728;2023-05-29T15:08:38;29.80;42.90
70368;DHT22;57789;53.868;10.728;2023-05-29T15:11:04;30.00;43.50
70368;DHT22;57789;53.868;10.728;2023-05-29T15:13:31;30.10;41.10
70368;DHT22;57789;53.868;10.728;2023-05-29T15:15:57;30.50;40.50
70368;DHT22;57789;53.868;10.728;2023-05-29T15:18:32;30.80;41.00
70368;DHT22;57789;53.868;10.728;2023-05-29T15:20:58;31.40;40.60
70368;DHT22;57789;53.868;10.728;2023-05-29T15:23:27;31.90;40.60
70368;DHT22;57789;53.868;10.728;2023-05-29T15:25:53;30.90;39.80
70368;DHT22;57789;53.868;10.728;2023-05-29T15:28:20;30.90;40.40
70368;DHT22;57789;53.868;10.728;2023-05-29T15:30:46;31.10;40.40
70368;DHT22;57789;53.868;10.728;2023-05-29T15:33:13;31.20;40.30
70368;DHT22;57789;53.868;10.728;2023-05-29T15:35:40;30.40;38.80
70368;DHT22;57789;53.868;10.728;2023-05-29T15:38:08;30.00;40.10
70368;DHT22;57789;53.868;10.728;2023-05-29T15:40:34;29.80;41.40
70368;DHT22;57789;53.868;10.728;2023-05-29T15:43:00;29.60;41.60
70368;DHT22;57789;53.868;10.728;2023-05-29T15:45:25;29.20;41.20
70368;DHT22;57789;53.868;10.728;2023-05-29T15:47:52;30.00;42.10
70368;DHT22;57789;53.868;10.728;2023-05-29T15:50:18;30.50;41.10
70368;DHT22;57789;53.868;10.728;2023-05-29T15:52:44;30.80;40.30
70368;DHT22;57789;53.868;10.728;2023-05-29T15:55:10;30.50;40.80
70368;DHT22;57789;53.868;10.728;2023-05-29T15:57:35;30.00;41.40
70368;DHT22;57789;53.868;10.728;2023-05-29T16:00:02;31.00;40.50
70368;DHT22;57789;53.868;10.728;2023-05-29T16:02:28;32.30;39.60